Dane County Regional Truax Field
KMSN : now visible

Airfield :











YOU CAN JOIN US ON...

 
LOGIN :

Register | Disclaimer

   EN    FR    IT 

 









Legend :    VFR   Marginal VFR   IFR   Intensive IFR   Very Intensive IFR
Visi :
Ceiling :
>= 8 km
>= 3000ft
5 to 8 km
1000 to 3000 ft
1500m to 5 km
500 to 1000 ft
800 to 1500m
200 to 500 ft
< 800m
< 200 ft
Symbols :   Thunderstorms  Fog  Heavy snow  Heavy precipitations  Wind > 20 kt






- Airport Elevation : 887 ft
- IATA code : MSN


KMSN - Dane County Regional Truax Field

CURRENT METAR :
  • 252053Z 03010KT 10SM BKN120 OVC200 M07/M12 A2999 RMK AO2 SLP171 T10671117 56027

EXPIRED METARs :
  • 252020Z 03011KT 10SM SCT020 SCT120 OVC200 M07/M12 A2998 RMK AO2 T10671122
  • 251953Z 04011KT 10SM BKN020 OVC170 M07/M13 A2999 RMK AO2 SLP173 T10721128
  • 251912Z 04015KT 10SM BKN020 OVC200 M07/M13 A3000 RMK AO2 T10721133
  • 251853Z 03012KT 10SM FEW021 SCT170 OVC200 M07/M13 A3002 RMK AO2 SLP182 T10721128

TAF KMSN
Valid from the 25 at 20:00 until the 26 at 18:00 UTC


252023Z 2520/2618 04013KT P6SM SCT020 OVC150
TEMPO 2520/2523 BKN020
FM252300 05014G20KT P6SM BKN020 OVC150
FM260100 05014G23KT P6SM OVC017
FM260600 05015KT 1SM -SN BLSN OVC016
FM261600 02015KT 2SM -SN BLSN OVC017
KZAU FIR / North America



MET'MAP, your aeronautical weather chart ! - Copyright ORBIFLY December 2007 - Disclaimer

ORBIFLY MET'MAP TEAM :

Programming & Development : Alexandra Zaïnal
Concept & original design : Baudouin d'Aumeries
Assistance for programming : Marc-Olivier Méhu
Technical & hardware support : Manuel Goepfert

Contact : metmap@orbifly.com




SOURCES & CREDITS :

   NOAA       Earth
Advisory